ePrivacy and GPDR Cookie Consent by Cookie Consent
EmailTwitter


Surface observations / United Kingdom / EGHI (03865)

Regions: Quebec | Canada | USA | Europe | France | UK | Elsewhere
Station
Display
Info & Location for EGHI (03865) | Help decoding METAR

Weather Conditions observed on 2021/04/14 at 11:50 UTC at SOUTHAMPTON WX C, UK (EGHI)

Sky conditions: variable clouds.

Temperature: 11.0 Celsius.

Dewpoint: 2.0 Celsius.

Relative Humidity: 54%

Winds: Variable at 6 km/h or 3 knots.

Mean Sea level Pressure: 103.20 kilopascals.

Horizontal visibility: 6.21 statute miles or 9.94 kilometers.

Coded METAR:

EGHI 141150Z VRB03KT 9999 SCT030 11/02 Q1032=